createdAt,value
2023-05-14T00:00:40.347Z,246.08
2023-05-14T00:01:40.352Z,243.90
2023-05-14T00:02:40.438Z,242.87
2023-05-14T00:03:40.468Z,239.26
2023-05-14T00:04:40.464Z,236.92
2023-05-14T00:05:40.321Z,236.69
2023-05-14T00:06:40.344Z,239.13
2023-05-14T00:07:40.319Z,239.43
2023-05-14T00:08:40.318Z,234.41
2023-05-14T00:09:40.292Z,233.53
2023-05-14T00:10:40.312Z,232.59
2023-05-14T00:11:40.295Z,230.01
2023-05-14T00:12:40.270Z,221.93
2023-05-14T00:13:40.273Z,226.87
2023-05-14T00:14:40.271Z,228.47
2023-05-14T00:15:40.314Z,226.36
2023-05-14T00:16:40.256Z,229.14
2023-05-14T00:17:40.273Z,224.29
2023-05-14T00:18:40.268Z,228.08
2023-05-14T00:19:40.225Z,227.69
2023-05-14T00:20:40.214Z,227.10
2023-05-14T00:21:40.222Z,230.29
2023-05-14T00:22:40.198Z,230.54
2023-05-14T00:23:40.212Z,231.55
2023-05-14T00:24:40.184Z,231.62
2023-05-14T00:25:40.190Z,233.37
2023-05-14T00:26:40.181Z,233.33
2023-05-14T00:27:40.185Z,231.12
2023-05-14T00:28:40.169Z,233.84
2023-05-14T00:29:40.161Z,235.66
2023-05-14T00:30:40.152Z,236.19
2023-05-14T00:31:40.201Z,235.09
2023-05-14T00:32:40.181Z,232.53
2023-05-14T00:33:40.140Z,231.77
2023-05-14T00:34:40.177Z,232.47
2023-05-14T00:35:40.193Z,232.52
2023-05-14T00:36:40.228Z,229.23
2023-05-14T00:37:40.278Z,232.73
2023-05-14T00:38:40.330Z,228.33
2023-05-14T00:39:40.398Z,227.42
2023-05-14T00:40:40.395Z,224.72
2023-05-14T00:41:40.388Z,227.63
2023-05-14T00:42:40.401Z,226.30
2023-05-14T00:43:40.402Z,227.12
2023-05-14T00:44:40.418Z,225.10
2023-05-14T00:45:40.402Z,221.30
2023-05-14T00:46:40.436Z,220.78
2023-05-14T00:47:40.430Z,222.46
2023-05-14T00:48:40.409Z,223.84
2023-05-14T00:49:40.454Z,224.87
2023-05-14T00:50:40.435Z,226.51
2023-05-14T00:51:40.444Z,228.51
2023-05-14T00:52:40.438Z,226.51
2023-05-14T00:53:40.457Z,224.90
2023-05-14T00:54:40.500Z,229.27
2023-05-14T00:55:40.570Z,228.96
2023-05-14T00:56:40.616Z,223.39
2023-05-14T00:57:40.683Z,228.65
2023-05-14T00:58:40.711Z,228.85
2023-05-14T00:59:40.753Z,225.83
2023-05-14T01:00:40.791Z,222.94
2023-05-14T01:01:40.779Z,225.41
2023-05-14T01:02:40.914Z,225.85
2023-05-14T01:03:41.043Z,221.90
2023-05-14T01:04:40.960Z,226.01
2023-05-14T01:05:41.010Z,225.50
2023-05-14T01:06:41.042Z,222.99
2023-05-14T01:07:41.045Z,224.66
2023-05-14T01:08:41.076Z,225.09
2023-05-14T01:09:41.093Z,221.61
2023-05-14T01:10:41.067Z,219.73
2023-05-14T01:11:41.084Z,218.31
2023-05-14T01:12:41.146Z,218.66
2023-05-14T01:13:41.157Z,221.23
2023-05-14T01:14:41.166Z,219.97
2023-05-14T01:15:41.155Z,220.48
2023-05-14T01:16:41.230Z,218.46
2023-05-14T01:17:41.181Z,220.19
2023-05-14T01:18:41.183Z,218.09
2023-05-14T01:19:41.179Z,219.73
2023-05-14T01:20:41.186Z,219.41
2023-05-14T01:21:41.245Z,222.17
2023-05-14T01:22:41.298Z,221.39
2023-05-14T01:23:41.325Z,222.19
2023-05-14T01:24:41.381Z,220.57
2023-05-14T01:25:41.445Z,222.30
2023-05-14T01:26:41.502Z,223.55
2023-05-14T01:27:41.569Z,222.39
2023-05-14T01:28:41.578Z,226.15
2023-05-14T01:29:41.599Z,223.23
2023-05-14T01:30:41.578Z,222.29
2023-05-14T01:31:41.625Z,222.35
2023-05-14T01:32:41.635Z,225.41
2023-05-14T01:33:41.656Z,227.24
2023-05-14T01:34:41.739Z,226.91
2023-05-14T01:35:41.760Z,226.60
2023-05-14T01:36:41.815Z,227.07
2023-05-14T01:37:41.864Z,225.31
2023-05-14T01:38:41.894Z,222.01
2023-05-14T01:39:41.904Z,225.23
2023-05-14T01:40:41.933Z,228.81
2023-05-14T01:41:41.924Z,226.09
2023-05-14T01:42:41.960Z,228.20
2023-05-14T01:43:41.966Z,228.74
2023-05-14T01:44:41.962Z,227.88
2023-05-14T01:45:41.999Z,229.41
2023-05-14T01:46:42.083Z,227.23
2023-05-14T01:47:42.054Z,228.67
2023-05-14T01:48:42.054Z,225.68
2023-05-14T01:49:42.074Z,224.52
2023-05-14T01:50:42.073Z,223.44
2023-05-14T01:51:42.087Z,228.09
2023-05-14T01:52:42.139Z,223.55
2023-05-14T01:53:42.126Z,226.28
2023-05-14T01:54:42.167Z,229.49
2023-05-14T01:55:42.246Z,224.66
2023-05-14T01:56:42.303Z,225.91
2023-05-14T01:57:42.325Z,226.86
2023-05-14T01:58:42.401Z,225.68
2023-05-14T01:59:42.452Z,225.80
2023-05-14T02:00:42.531Z,224.47
2023-05-14T02:01:42.631Z,223.95
2023-05-14T02:02:42.652Z,220.08
2023-05-14T02:03:42.723Z,219.29
2023-05-14T02:04:42.751Z,216.27
2023-05-14T02:05:42.808Z,217.05
2023-05-14T02:06:42.869Z,212.14
2023-05-14T02:07:42.949Z,217.41
2023-05-14T02:08:43.010Z,217.14
2023-05-14T02:09:43.066Z,219.79
2023-05-14T02:10:43.119Z,218.50
2023-05-14T02:11:43.127Z,219.35
2023-05-14T02:12:43.161Z,219.97
2023-05-14T02:13:43.130Z,219.66
2023-05-14T02:14:43.158Z,217.75
2023-05-14T02:15:43.265Z,217.32
2023-05-14T02:16:43.287Z,217.88
2023-05-14T02:17:43.369Z,220.42
2023-05-14T02:18:43.448Z,216.71
2023-05-14T02:19:43.479Z,217.45
2023-05-14T02:20:43.493Z,217.76
2023-05-14T02:21:43.505Z,217.28
2023-05-14T02:22:43.558Z,215.77
2023-05-14T02:23:43.555Z,212.51
2023-05-14T02:24:43.555Z,213.52
2023-05-14T02:25:43.595Z,216.76
2023-05-14T02:26:43.593Z,218.20
2023-05-14T02:27:43.589Z,217.89
2023-05-14T02:28:43.609Z,213.68
2023-05-14T02:29:43.636Z,214.99
2023-05-14T02:30:43.639Z,211.99
2023-05-14T02:31:43.723Z,212.10
2023-05-14T02:32:43.767Z,212.32
2023-05-14T02:33:43.732Z,213.28
2023-05-14T02:34:43.709Z,212.54
2023-05-14T02:35:43.728Z,212.15
2023-05-14T02:36:43.733Z,209.90
2023-05-14T02:37:43.758Z,213.26
2023-05-14T02:38:43.782Z,217.76
2023-05-14T02:39:43.783Z,217.94
2023-05-14T02:40:43.792Z,209.17
2023-05-14T02:41:43.823Z,209.13
2023-05-14T02:42:43.831Z,209.67
2023-05-14T02:43:43.869Z,212.51
2023-05-14T02:44:43.870Z,207.73
2023-05-14T02:45:43.897Z,209.93
2023-05-14T02:46:43.920Z,209.70
2023-05-14T02:47:43.989Z,210.00
2023-05-14T02:48:43.957Z,206.98
2023-05-14T02:49:44.017Z,212.25
2023-05-14T02:50:44.093Z,210.68
2023-05-14T02:51:44.119Z,209.72
2023-05-14T02:52:44.123Z,211.17
2023-05-14T02:53:44.146Z,210.30
2023-05-14T02:54:44.149Z,209.38
2023-05-14T02:55:44.192Z,205.95
2023-05-14T02:56:44.205Z,208.68
2023-05-14T02:57:44.196Z,205.13
2023-05-14T02:58:44.213Z,210.38
2023-05-14T02:59:44.251Z,211.50
2023-05-14T03:00:44.283Z,213.11
2023-05-14T03:01:44.301Z,210.26
2023-05-14T03:02:44.536Z,211.60
2023-05-14T03:03:44.317Z,211.27
2023-05-14T03:04:44.336Z,207.99
2023-05-14T03:05:44.331Z,215.20
2023-05-14T03:06:44.347Z,209.48
2023-05-14T03:07:44.381Z,207.85
2023-05-14T03:08:44.389Z,210.15
2023-05-14T03:09:44.412Z,214.40
2023-05-14T03:10:44.417Z,209.25
2023-05-14T03:11:44.436Z,205.18
2023-05-14T03:12:44.447Z,206.32
2023-05-14T03:13:44.479Z,210.03
2023-05-14T03:14:44.520Z,209.36
2023-05-14T03:15:44.587Z,212.10
2023-05-14T03:16:44.668Z,212.14
2023-05-14T03:17:44.710Z,213.79
2023-05-14T03:18:44.702Z,211.18
2023-05-14T03:19:44.652Z,213.46
2023-05-14T03:20:44.654Z,212.05
2023-05-14T03:21:44.682Z,209.19
2023-05-14T03:22:44.683Z,209.20
2023-05-14T03:23:44.709Z,208.82
2023-05-14T03:24:44.729Z,210.33
2023-05-14T03:25:44.736Z,212.90
2023-05-14T03:26:44.766Z,213.83
2023-05-14T03:27:44.781Z,211.48
2023-05-14T03:28:44.796Z,213.56
2023-05-14T03:29:44.841Z,213.33
2023-05-14T03:30:44.884Z,209.10
2023-05-14T03:31:44.872Z,213.73
2023-05-14T03:32:44.900Z,211.72
2023-05-14T03:33:44.912Z,210.03
2023-05-14T03:34:44.926Z,211.02
2023-05-14T03:35:45.014Z,212.89
2023-05-14T03:36:45.070Z,210.55
2023-05-14T03:37:45.133Z,212.65
2023-05-14T03:38:45.227Z,211.97
2023-05-14T03:39:45.266Z,213.34
2023-05-14T03:40:45.328Z,206.72
2023-05-14T03:41:45.360Z,209.73
2023-05-14T03:42:45.399Z,211.15
2023-05-14T03:43:45.403Z,216.95
2023-05-14T03:44:45.437Z,213.58
2023-05-14T03:45:45.464Z,217.14
2023-05-14T03:46:45.505Z,208.65
2023-05-14T03:47:45.550Z,211.65
2023-05-14T03:48:45.552Z,213.35
2023-05-14T03:49:45.546Z,211.17
2023-05-14T03:50:45.570Z,207.83
2023-05-14T03:51:45.602Z,209.46
2023-05-14T03:52:45.636Z,208.79
2023-05-14T03:53:45.655Z,207.30
2023-05-14T03:54:45.673Z,213.39
2023-05-14T03:55:45.674Z,206.87
2023-05-14T03:56:45.739Z,209.06
2023-05-14T03:57:45.777Z,208.43
2023-05-14T03:58:45.804Z,212.48
2023-05-14T03:59:45.823Z,205.58
2023-05-14T04:00:45.836Z,209.10
2023-05-14T04:01:45.838Z,206.36
2023-05-14T04:02:45.980Z,206.84
2023-05-14T04:03:46.061Z,207.44
2023-05-14T04:04:45.939Z,203.30
2023-05-14T04:05:45.928Z,205.63
2023-05-14T04:06:45.921Z,206.69
2023-05-14T04:07:45.954Z,205.56
2023-05-14T04:08:46.012Z,210.31
2023-05-14T04:09:46.090Z,207.53
2023-05-14T04:10:46.150Z,207.59
2023-05-14T04:11:46.197Z,205.89
2023-05-14T04:12:46.246Z,207.40
2023-05-14T04:13:46.319Z,202.38
2023-05-14T04:14:46.384Z,197.10
2023-05-14T04:15:46.455Z,204.92
2023-05-14T04:16:46.645Z,207.37
2023-05-14T04:17:46.567Z,202.88
2023-05-14T04:18:46.605Z,198.41
2023-05-14T04:19:46.586Z,197.50
2023-05-14T04:20:46.615Z,201.04
2023-05-14T04:21:46.623Z,200.32
2023-05-14T04:22:46.635Z,202.75
2023-05-14T04:23:46.664Z,196.81
2023-05-14T04:24:46.654Z,197.17
2023-05-14T04:25:46.660Z,195.06
2023-05-14T04:26:46.691Z,192.42
2023-05-14T04:27:46.703Z,195.15
2023-05-14T04:28:46.713Z,196.44
2023-05-14T04:29:46.794Z,191.17
2023-05-14T04:30:46.849Z,197.17
2023-05-14T04:31:46.891Z,192.92
2023-05-14T04:32:46.965Z,195.82
2023-05-14T04:33:47.004Z,190.03
2023-05-14T04:34:47.067Z,190.29
2023-05-14T04:35:47.116Z,191.08
2023-05-14T04:36:47.218Z,190.45
2023-05-14T04:37:47.247Z,189.13
2023-05-14T04:38:47.293Z,193.90
2023-05-14T04:39:47.310Z,189.05
2023-05-14T04:40:47.327Z,193.31
2023-05-14T04:41:47.338Z,190.01
2023-05-14T04:42:47.397Z,189.60
2023-05-14T04:43:47.450Z,189.19
2023-05-14T04:44:47.506Z,195.38
2023-05-14T04:45:47.635Z,192.67
2023-05-14T04:46:47.649Z,191.98
2023-05-14T04:47:47.762Z,187.18
2023-05-14T04:48:47.749Z,186.66
2023-05-14T04:49:47.787Z,184.72
2023-05-14T04:50:47.821Z,190.01
2023-05-14T04:51:47.834Z,189.72
2023-05-14T04:52:47.858Z,187.10
2023-05-14T04:53:47.864Z,188.23
2023-05-14T04:54:47.916Z,190.27
2023-05-14T04:55:47.921Z,186.89
2023-05-14T04:56:47.978Z,190.41
2023-05-14T04:57:48.047Z,181.59
2023-05-14T04:58:48.039Z,186.87
2023-05-14T04:59:48.116Z,183.45
2023-05-14T05:00:48.158Z,179.93
2023-05-14T05:01:48.242Z,183.41
2023-05-14T05:02:48.229Z,183.04
2023-05-14T05:03:48.304Z,185.47
2023-05-14T05:04:48.352Z,183.49
2023-05-14T05:05:48.406Z,184.42
2023-05-14T05:06:48.474Z,184.82
2023-05-14T05:07:48.534Z,185.82
2023-05-14T05:08:48.590Z,182.12
2023-05-14T05:09:48.654Z,183.94
2023-05-14T05:10:48.722Z,186.53
2023-05-14T05:11:48.784Z,182.90
2023-05-14T05:12:48.783Z,176.50
2023-05-14T05:13:48.839Z,178.26
2023-05-14T05:14:48.835Z,176.34
2023-05-14T05:15:48.892Z,182.36
2023-05-14T05:16:48.858Z,183.22
2023-05-14T05:17:48.920Z,179.44
2023-05-14T05:18:48.971Z,180.24
2023-05-14T05:19:48.949Z,179.22
2023-05-14T05:20:48.994Z,184.00
2023-05-14T05:21:48.987Z,178.37
2023-05-14T05:22:49.017Z,177.24
2023-05-14T05:23:49.010Z,178.21
2023-05-14T05:24:50.105Z,175.29
2023-05-14T05:25:49.094Z,177.93
2023-05-14T05:26:49.119Z,174.29
2023-05-14T05:27:49.132Z,173.53
2023-05-14T05:28:49.171Z,181.03
2023-05-14T05:29:49.195Z,177.14
2023-05-14T05:30:49.199Z,176.61
2023-05-14T05:31:49.382Z,179.62
2023-05-14T05:32:49.274Z,179.67
2023-05-14T05:33:49.262Z,173.53
2023-05-14T05:34:49.247Z,176.81
2023-05-14T05:35:49.309Z,170.25
2023-05-14T05:36:49.305Z,175.56
2023-05-14T05:37:49.322Z,170.53
2023-05-14T05:38:49.390Z,165.82
2023-05-14T05:39:49.454Z,167.84
2023-05-14T05:40:49.444Z,167.69
2023-05-14T05:41:49.465Z,173.93
2023-05-14T05:42:49.477Z,167.68
2023-05-14T05:43:49.494Z,172.20
2023-05-14T05:44:49.508Z,169.45
2023-05-14T05:45:49.548Z,171.51
2023-05-14T05:46:49.647Z,168.99
2023-05-14T05:47:49.683Z,166.40
2023-05-14T05:48:49.630Z,167.05
2023-05-14T05:49:49.655Z,165.68
2023-05-14T05:50:49.675Z,162.61
2023-05-14T05:51:49.699Z,168.17
2023-05-14T05:52:49.705Z,165.72
2023-05-14T05:53:49.716Z,168.87
2023-05-14T05:54:49.732Z,169.65
2023-05-14T05:55:49.749Z,167.25
2023-05-14T05:56:49.761Z,165.39
2023-05-14T05:57:49.822Z,164.46
2023-05-14T05:58:49.875Z,166.05
2023-05-14T05:59:49.937Z,168.99
2023-05-14T06:00:50.019Z,167.66
2023-05-14T06:01:50.090Z,164.30
2023-05-14T06:02:50.102Z,162.04
2023-05-14T06:03:50.093Z,162.15
2023-05-14T06:04:50.112Z,166.19
2023-05-14T06:05:50.186Z,166.32
2023-05-14T06:06:50.097Z,165.41
2023-05-14T06:07:50.139Z,161.74
2023-05-14T06:08:50.107Z,161.27
2023-05-14T06:09:50.137Z,162.50
2023-05-14T06:10:50.157Z,161.91
2023-05-14T06:11:50.152Z,162.07
2023-05-14T06:12:50.140Z,154.99
2023-05-14T06:13:50.160Z,157.51
2023-05-14T06:14:50.158Z,163.37
2023-05-14T06:15:50.162Z,156.63
2023-05-14T06:16:50.208Z,148.25
2023-05-14T06:17:50.187Z,149.01
2023-05-14T06:18:50.246Z,151.74
2023-05-14T06:19:50.172Z,162.17
2023-05-14T06:20:50.172Z,150.47
2023-05-14T06:21:50.164Z,145.90
2023-05-14T06:22:50.175Z,141.71
2023-05-14T06:23:50.166Z,137.25
2023-05-14T06:24:50.191Z,140.01
2023-05-14T06:25:50.867Z,133.67
2023-05-14T06:26:50.166Z,138.72
2023-05-14T06:27:50.169Z,142.38
2023-05-14T06:28:50.169Z,144.96
2023-05-14T06:29:50.182Z,141.06
2023-05-14T06:30:50.174Z,145.03
2023-05-14T06:31:50.183Z,143.37
2023-05-14T06:32:50.248Z,142.26
2023-05-14T06:33:50.163Z,142.99
2023-05-14T06:34:50.170Z,141.04
2023-05-14T06:35:50.171Z,141.37
2023-05-14T06:36:50.181Z,140.19
2023-05-14T06:37:50.179Z,138.45
2023-05-14T06:38:50.166Z,137.44
2023-05-14T06:39:50.287Z,135.09
2023-05-14T06:40:50.176Z,135.75
2023-05-14T06:41:50.188Z,136.32
2023-05-14T06:42:50.176Z,131.61
2023-05-14T06:43:50.186Z,126.74
2023-05-14T06:44:50.205Z,135.20
2023-05-14T06:45:50.243Z,129.63
2023-05-14T06:46:50.214Z,131.96
2023-05-14T06:47:50.233Z,132.44
2023-05-14T06:48:50.233Z,135.53
2023-05-14T06:49:50.227Z,134.21
2023-05-14T06:50:50.220Z,127.42
2023-05-14T06:51:50.239Z,123.73
2023-05-14T06:52:50.226Z,125.23
2023-05-14T06:53:50.274Z,123.76
2023-05-14T06:54:50.258Z,122.12
2023-05-14T06:55:50.275Z,125.75
2023-05-14T06:56:50.307Z,132.63
2023-05-14T06:57:50.336Z,132.18
2023-05-14T06:58:50.371Z,136.84
2023-05-14T06:59:50.396Z,132.78
2023-05-14T07:00:50.400Z,132.40
2023-05-14T07:01:50.517Z,138.21
2023-05-14T07:02:50.485Z,139.49
2023-05-14T07:03:50.500Z,135.42
2023-05-14T07:04:50.527Z,140.64
2023-05-14T07:05:50.526Z,137.73
2023-05-14T07:06:50.559Z,146.95
2023-05-14T07:07:50.574Z,137.66
2023-05-14T07:08:50.613Z,143.66
2023-05-14T07:09:50.636Z,143.51
2023-05-14T07:10:50.653Z,140.68
2023-05-14T07:11:50.695Z,143.76
2023-05-14T07:12:50.698Z,147.57
2023-05-14T07:13:50.741Z,143.34
2023-05-14T07:14:50.753Z,143.58
2023-05-14T07:15:50.823Z,144.00
2023-05-14T07:16:50.950Z,145.12
2023-05-14T07:17:50.968Z,147.01
2023-05-14T07:18:51.031Z,141.58
2023-05-14T07:19:51.044Z,144.40
2023-05-14T07:20:51.068Z,139.11
2023-05-14T07:21:51.132Z,151.01
2023-05-14T07:22:51.168Z,156.71
2023-05-14T07:23:51.230Z,156.01
2023-05-14T07:24:51.271Z,148.32
2023-05-14T07:25:51.339Z,148.05
2023-05-14T07:26:51.382Z,145.54
2023-05-14T07:27:51.454Z,140.73
2023-05-14T07:28:51.497Z,141.65
2023-05-14T07:29:51.541Z,141.08
2023-05-14T07:30:51.632Z,146.43
2023-05-14T07:31:51.817Z,140.65
2023-05-14T07:32:51.706Z,141.22
2023-05-14T07:33:51.762Z,156.36
2023-05-14T07:34:51.804Z,149.73
2023-05-14T07:35:51.863Z,148.80
2023-05-14T07:36:51.952Z,149.31
2023-05-14T07:37:51.979Z,151.24
2023-05-14T07:38:52.006Z,147.91
2023-05-14T07:39:52.060Z,133.87
2023-05-14T07:40:52.120Z,148.19
2023-05-14T07:41:52.152Z,153.37
2023-05-14T07:42:52.207Z,157.33
2023-05-14T07:43:52.278Z,152.03
2023-05-14T07:44:52.292Z,148.81
2023-05-14T07:45:52.339Z,141.22
2023-05-14T07:46:52.399Z,140.36
2023-05-14T07:47:52.688Z,141.40
2023-05-14T07:48:52.446Z,131.67
2023-05-14T07:49:52.520Z,137.07
2023-05-14T07:50:52.581Z,136.36
2023-05-14T07:51:52.671Z,130.75
2023-05-14T07:52:52.696Z,133.90
2023-05-14T07:53:52.728Z,130.51
2023-05-14T07:54:52.774Z,129.67
2023-05-14T07:55:52.798Z,132.91
2023-05-14T07:56:52.843Z,126.46
2023-05-14T07:57:52.892Z,123.80
2023-05-14T07:58:52.968Z,123.34
2023-05-14T07:59:53.028Z,122.91
2023-05-14T08:00:53.083Z,126.90
2023-05-14T08:01:53.177Z,125.19
2023-05-14T08:02:53.298Z,121.30
2023-05-14T08:03:53.397Z,124.30
2023-05-14T08:04:53.276Z,129.57
2023-05-14T08:05:53.296Z,126.08
2023-05-14T08:06:53.345Z,126.84
2023-05-14T08:07:53.376Z,132.09
2023-05-14T08:08:53.363Z,131.38
2023-05-14T08:09:53.429Z,131.76
2023-05-14T08:10:53.507Z,130.53
2023-05-14T08:11:53.525Z,112.93
2023-05-14T08:12:53.574Z,113.83
2023-05-14T08:13:53.651Z,105.12
2023-05-14T08:14:53.691Z,97.63
2023-05-14T08:15:53.754Z,97.37
2023-05-14T08:16:53.870Z,106.97
2023-05-14T08:17:53.882Z,100.25
2023-05-14T08:18:53.974Z,100.33
2023-05-14T08:19:53.885Z,103.44
2023-05-14T08:20:53.891Z,89.13
2023-05-14T08:21:53.907Z,81.22
2023-05-14T08:22:53.882Z,91.32
2023-05-14T08:23:53.912Z,93.74
2023-05-14T08:24:53.985Z,92.97
2023-05-14T08:25:53.982Z,94.42
2023-05-14T08:26:54.041Z,71.21
2023-05-14T08:27:54.042Z,68.76
2023-05-14T08:28:54.047Z,61.85
2023-05-14T08:29:54.093Z,53.01
2023-05-14T08:30:54.149Z,45.68
2023-05-14T08:31:54.125Z,45.05
2023-05-14T08:32:54.167Z,42.39
2023-05-14T08:33:54.175Z,50.35
2023-05-14T08:34:54.174Z,52.10
2023-05-14T08:35:54.200Z,53.36
2023-05-14T08:36:54.218Z,56.29
2023-05-14T08:37:54.211Z,37.47
2023-05-14T08:38:54.231Z,39.55
2023-05-14T08:39:54.263Z,33.79
2023-05-14T08:40:54.255Z,37.08
2023-05-14T08:41:54.259Z,37.50
2023-05-14T08:42:54.246Z,34.67
2023-05-14T08:43:54.263Z,41.95
2023-05-14T08:44:54.248Z,35.14
2023-05-14T08:45:54.278Z,41.39
2023-05-14T08:46:54.295Z,38.56
2023-05-14T08:47:54.374Z,34.34
2023-05-14T08:48:54.418Z,25.00
2023-05-14T08:49:54.466Z,33.66
2023-05-14T08:50:54.497Z,29.11
2023-05-14T08:51:54.831Z,27.80
2023-05-14T08:52:54.599Z,36.53
2023-05-14T08:53:54.640Z,33.56
2023-05-14T08:54:54.728Z,26.65
2023-05-14T08:55:54.775Z,42.64
2023-05-14T08:56:54.784Z,34.49
2023-05-14T08:57:54.832Z,29.41
2023-05-14T08:58:54.777Z,25.15
2023-05-14T08:59:54.824Z,32.77
2023-05-14T09:00:54.869Z,25.51
2023-05-14T09:01:54.924Z,36.13
2023-05-14T09:02:54.958Z,26.53
2023-05-14T09:03:55.009Z,25.35
2023-05-14T09:04:54.955Z,25.26
2023-05-14T09:05:54.987Z,26.03
2023-05-14T09:06:55.041Z,23.25
2023-05-14T09:07:54.972Z,26.96
2023-05-14T09:08:54.981Z,24.60
2023-05-14T09:09:54.976Z,32.11
2023-05-14T09:10:54.974Z,43.86
2023-05-14T09:11:54.992Z,43.96
2023-05-14T09:12:54.983Z,28.03
2023-05-14T09:13:54.959Z,35.51
2023-05-14T09:14:54.969Z,34.80
2023-05-14T09:15:55.062Z,36.57
2023-05-14T09:16:55.025Z,32.82
2023-05-14T09:17:55.079Z,35.69
2023-05-14T09:18:55.167Z,32.40
2023-05-14T09:19:55.182Z,31.65
2023-05-14T09:20:55.225Z,26.68
2023-05-14T09:21:55.291Z,33.99
2023-05-14T09:22:55.359Z,30.13
2023-05-14T09:23:55.418Z,36.94
2023-05-14T09:24:55.485Z,35.93
2023-05-14T09:25:55.544Z,33.53
2023-05-14T09:26:55.604Z,30.72
2023-05-14T09:27:57.322Z,37.74
2023-05-14T09:28:55.659Z,29.71
2023-05-14T09:29:55.655Z,28.93
2023-05-14T09:30:55.627Z,26.77
2023-05-14T09:31:55.664Z,30.62
2023-05-14T09:32:55.758Z,28.79
2023-05-14T09:33:55.608Z,31.05
2023-05-14T09:34:55.618Z,32.92
2023-05-14T09:35:57.683Z,29.25
2023-05-14T09:36:55.606Z,29.49
2023-05-14T09:37:55.588Z,30.16
2023-05-14T09:38:55.589Z,31.87
2023-05-14T09:39:55.583Z,43.11
2023-05-14T09:40:55.567Z,45.60
2023-05-14T09:41:55.597Z,46.68
2023-05-14T09:42:55.569Z,44.87
2023-05-14T09:43:55.565Z,46.59
2023-05-14T09:44:55.533Z,57.62
2023-05-14T09:45:55.534Z,52.25
2023-05-14T09:46:55.573Z,52.21
2023-05-14T09:47:55.793Z,54.99
2023-05-14T09:48:55.515Z,58.06
2023-05-14T09:49:55.527Z,64.45
2023-05-14T09:50:55.516Z,75.15
2023-05-14T09:51:55.492Z,63.93
2023-05-14T09:52:55.488Z,56.09
2023-05-14T09:53:55.485Z,58.90
2023-05-14T09:54:55.488Z,69.09
2023-05-14T09:55:55.463Z,62.65
2023-05-14T09:56:55.990Z,57.45
2023-05-14T09:57:55.448Z,75.49
2023-05-14T09:58:55.441Z,71.97
2023-05-14T09:59:55.451Z,60.04
2023-05-14T10:00:55.453Z,70.77
2023-05-14T10:01:55.445Z,80.66
2023-05-14T10:02:55.461Z,76.04
2023-05-14T10:03:55.443Z,82.11
2023-05-14T10:04:55.417Z,66.84
2023-05-14T10:05:55.414Z,77.85
2023-05-14T10:06:55.389Z,83.75
2023-05-14T10:07:55.410Z,77.80
2023-05-14T10:08:55.387Z,85.02
2023-05-14T10:09:57.156Z,81.55
2023-05-14T10:10:55.368Z,75.24
2023-05-14T10:11:55.364Z,71.11
2023-05-14T10:12:55.349Z,74.96
2023-05-14T10:13:55.358Z,70.64
2023-05-14T10:14:55.408Z,73.80
2023-05-14T10:15:55.452Z,78.91
2023-05-14T10:16:55.528Z,69.41
2023-05-14T10:17:55.603Z,66.98
2023-05-14T10:18:57.331Z,55.00
2023-05-14T10:19:55.679Z,54.42
2023-05-14T10:20:55.725Z,60.87
2023-05-14T10:21:55.784Z,58.14
2023-05-14T10:22:55.831Z,50.26
2023-05-14T10:23:55.898Z,50.03
2023-05-14T10:24:55.942Z,47.97
2023-05-14T10:25:55.996Z,40.43
2023-05-14T10:26:56.076Z,47.73
2023-05-14T10:27:56.076Z,58.10
2023-05-14T10:28:56.089Z,60.72
2023-05-14T10:29:56.092Z,68.14
2023-05-14T10:30:56.147Z,70.02
2023-05-14T10:31:56.268Z,64.90
2023-05-14T10:32:56.338Z,74.93
2023-05-14T10:33:57.909Z,71.29
2023-05-14T10:34:56.328Z,74.67
2023-05-14T10:35:56.316Z,77.58
2023-05-14T10:36:56.313Z,57.10
2023-05-14T10:37:56.297Z,76.30
2023-05-14T10:38:56.316Z,74.13
2023-05-14T10:39:56.299Z,77.20
2023-05-14T10:40:56.298Z,85.39
2023-05-14T10:41:56.296Z,78.89
2023-05-14T10:42:56.279Z,78.20
2023-05-14T10:43:56.276Z,76.52
2023-05-14T10:44:56.260Z,71.76
2023-05-14T10:45:56.268Z,81.70
2023-05-14T10:46:56.376Z,87.19
2023-05-14T10:47:56.293Z,87.66
2023-05-14T10:48:56.247Z,92.37
2023-05-14T10:49:56.241Z,89.30
2023-05-14T10:50:56.275Z,94.11
2023-05-14T10:51:56.209Z,92.26
2023-05-14T10:52:56.228Z,91.36
2023-05-14T10:53:56.205Z,92.17
2023-05-14T10:54:56.195Z,92.54
2023-05-14T10:55:56.190Z,81.20
2023-05-14T10:56:56.183Z,97.07
2023-05-14T10:57:56.180Z,95.48
2023-05-14T10:58:56.183Z,100.49
2023-05-14T10:59:56.206Z,99.48
2023-05-14T11:00:56.170Z,85.55
2023-05-14T11:01:56.206Z,87.75
2023-05-14T11:02:56.307Z,91.90
2023-05-14T11:03:56.218Z,96.43
2023-05-14T11:04:56.145Z,100.34
2023-05-14T11:05:56.128Z,99.02
2023-05-14T11:06:56.118Z,105.86
2023-05-14T11:07:56.144Z,106.96
2023-05-14T11:08:56.125Z,90.84
2023-05-14T11:09:56.117Z,88.02
2023-05-14T11:10:56.116Z,92.70
2023-05-14T11:11:56.085Z,103.57
2023-05-14T11:12:56.078Z,105.33
2023-05-14T11:13:56.086Z,108.82
2023-05-14T11:14:56.077Z,100.49
2023-05-14T11:15:56.066Z,97.57
2023-05-14T11:16:56.061Z,98.16
2023-05-14T11:17:56.134Z,96.53
2023-05-14T11:18:56.105Z,106.82
2023-05-14T11:19:56.022Z,101.18
2023-05-14T11:20:56.017Z,90.26
2023-05-14T11:21:56.026Z,87.23
2023-05-14T11:22:56.001Z,77.43
2023-05-14T11:23:55.996Z,84.70
2023-05-14T11:24:56.011Z,85.03
2023-05-14T11:25:56.036Z,86.32
2023-05-14T11:26:56.027Z,93.40
2023-05-14T11:27:56.001Z,80.29
2023-05-14T11:28:56.039Z,81.72
2023-05-14T11:29:56.111Z,83.96
2023-05-14T11:30:56.131Z,93.15
2023-05-14T11:31:56.193Z,95.10
2023-05-14T11:32:56.260Z,97.15
2023-05-14T11:33:56.217Z,97.95
2023-05-14T11:34:56.229Z,91.65
2023-05-14T11:35:56.277Z,93.91
2023-05-14T11:36:56.307Z,84.05
2023-05-14T11:37:56.344Z,79.30
2023-05-14T11:38:56.402Z,90.66
2023-05-14T11:39:56.426Z,105.03
2023-05-14T11:40:56.470Z,105.09
2023-05-14T11:41:56.516Z,112.04
2023-05-14T11:42:56.540Z,94.00
2023-05-14T11:43:56.530Z,111.25
2023-05-14T11:44:56.535Z,100.72
2023-05-14T11:45:56.736Z,94.73
2023-05-14T11:46:56.561Z,85.51
2023-05-14T11:47:56.597Z,82.77
2023-05-14T11:48:56.602Z,87.26
2023-05-14T11:49:56.680Z,81.10
2023-05-14T11:50:56.730Z,80.56
2023-05-14T11:51:56.794Z,86.42
2023-05-14T11:52:56.855Z,92.84
2023-05-14T11:53:56.853Z,79.69
2023-05-14T11:54:56.892Z,67.73
2023-05-14T11:55:56.902Z,61.81
2023-05-14T11:56:56.909Z,59.09
2023-05-14T11:57:56.939Z,58.89
2023-05-14T11:58:56.997Z,55.99
2023-05-14T11:59:56.989Z,54.18
2023-05-14T12:00:57.055Z,52.56
2023-05-14T12:01:57.059Z,55.92
2023-05-14T12:02:57.172Z,56.97
2023-05-14T12:03:57.214Z,53.25
2023-05-14T12:04:57.195Z,67.54
2023-05-14T12:05:57.187Z,63.96
2023-05-14T12:06:57.225Z,66.69
2023-05-14T12:07:57.266Z,67.96
2023-05-14T12:08:57.340Z,69.00
2023-05-14T12:09:57.368Z,63.07
2023-05-14T12:10:57.416Z,59.70
2023-05-14T12:11:57.462Z,59.92
2023-05-14T12:12:57.489Z,74.58
2023-05-14T12:13:57.522Z,71.52
2023-05-14T12:14:57.542Z,77.91
2023-05-14T12:15:57.616Z,73.94
2023-05-14T12:16:57.622Z,69.60
2023-05-14T12:17:57.692Z,69.13
2023-05-14T12:18:57.711Z,72.53
2023-05-14T12:19:57.750Z,79.47
2023-05-14T12:20:57.762Z,79.14
2023-05-14T12:21:57.815Z,76.57
2023-05-14T12:22:57.840Z,74.32
2023-05-14T12:23:57.843Z,73.61
2023-05-14T12:24:57.878Z,81.58
2023-05-14T12:25:57.938Z,75.67
2023-05-14T12:26:57.915Z,77.76
2023-05-14T12:27:57.967Z,71.12
2023-05-14T12:28:57.990Z,71.06
2023-05-14T12:30:01.949Z,73.54
2023-05-14T12:30:59.036Z,69.25
2023-05-14T12:31:58.044Z,69.17
2023-05-14T12:32:58.086Z,60.07
2023-05-14T12:33:58.008Z,57.77
2023-05-14T12:34:57.978Z,61.52
2023-05-14T12:36:00.569Z,66.22
2023-05-14T12:36:58.973Z,66.27